Hlavní strana
METAR-TAF:

METAR-TAF

Letiště :

Rygge, Norsko

zeměpisná šířka: 59-23N, zeměpisná délka: 010-47E, výška: 5 m

Aktuální stav počasí

Zpráva byla vytvořena před 30 minutami, v 12:20 UTC
Jihojihozápadní vítr 10 kt
Teplota 19°C
Vlhkost vzduchu 32%
Tlak 1022 hPa
Viditelnost 10 km a více
Polojasno ve výšce 6600 ft

METAR: ENRY 231220Z 20010KT 9999 SCT066 19/02 Q1022 NOSIG

Čas: 14:50 (12:50 UTC)

Předpověď počasí

Předpověď platná od 23 v 12 UTC do 24 v 12 UTC
Východoseverovýchodní vítr 5 kt
Viditelnost 10 km a více
Žádná oblačnost pod 1500 m, nevyskytují se cumulonimby.
Dočasný
od 23 v 12 UTC do 23 v 15 UTC
Jihojihovýchodní vítr 10 kt

TAF: ENRY 2312/2412 07005KT CAVOK TEMPO 2312/2315 16010KT

Stav a předpovědi počasí z více než 4 000 letišť (zprávy METAR a TAF).

Červené a žluté tečky na mapě představují dostupné meteorologické stanice.

Když kurzor umístíte na tečku, zobrazí se název stanice.

Pak kliknutím zobrazíte stav a předpověď počasí.

Chcete-li změnit mapu, kliknutím na zelené tlačítko se znaménkem +mapu přiblížíte, kliknutím na zelené tlačítko se znaménkem – mapu oddálíte a kliknutím na zelené šipky přejdete na sousední mapy.


METAR-TAF: